Bebedouro, Brazil
Current Conditions -  °F | °C
As of 7:00 AM on Thursday 27 Nov 2014 (Local Time) from SBRP Reporting Station
Light Rain Light Rain  
Wind Chill: 72°   Ceiling: 500
Heat Index: 72°   Visibility: 2.5mi
Dew Point: 70°   Wind: 3mph
Humidity: 94%   Direction: 10°N
Pressure: 29.88"   Gusts: NA
Location:  20.95°S, 48.49°W
Report Text: SBRP 270900Z 01003KT 340V040 4000 -RA BKN005 BKN020 22/21 Q1012
Loading
Personal Weather Stations






























Interactive Weather Map New forecast layout! Learn more

10-Day Weather Forecast

Advertisements
Track Severe Weather on mobile